NCAR-RAP Real-Time Weather Data

Output produced by METARs form (17 September 2019  16:14 UTC)
found at http://weather.rap.ucar.edu/surface/
 
KILM 171553Z 04011KT 10SM CLR 31/21 A2996 RMK AO2 SLP144 T03060211
KILM 171453Z 02009KT 10SM CLR 28/22 A2996 RMK AO2 SLP146 T02830217 53008
KILM 171353Z 02013KT 10SM FEW007 26/22 A2995 RMK AO2 SLP143 T02610222
KILM 171253Z 03009KT 10SM FEW008 24/22 A2994 RMK AO2 SLP139 T02440217
KILM 171153Z 03007KT 10SM CLR 23/22 A2994 RMK AO2 SLP138 T02330217 10239 20222 53015
KILM 171053Z 04006KT 10SM CLR 22/21 A2993 RMK AO2 SLP134 T02220211
KILM 170953Z 02004KT 10SM CLR 23/21 A2991 RMK AO2 SLP127 T02280211
KILM 170853Z AUTO 01005KT 10SM CLR 23/21 A2990 RMK AO2 SLP123 T02280211 56011
KILM 170753Z AUTO 03004KT 10SM CLR 23/21 A2990 RMK AO2 SLP124 T02330211
KILM 170653Z AUTO 01006KT 10SM CLR 24/22 A2991 RMK AO2 SLP128 T02390217
KILM 170553Z AUTO 02005KT 10SM CLR 24/22 A2993 RMK AO2 SLP134 T02390222 10283 20239 58006
KILM 170453Z AUTO 03005KT 10SM CLR 24/22 A2994 RMK AO2 SLP138 T02390222 403170233
KILM 170353Z AUTO 02006KT 10SM CLR 24/22 A2994 RMK AO2 SLP139 T02440222
KILM 170253Z AUTO 01005KT 10SM CLR 25/22 A2995 RMK AO2 SLP140 T02500222 51004
KILM 170053Z 05005KT 10SM CLR 26/22 A2994 RMK AO2 SLP137 T02610222
KILM 162353Z 05010KT 10SM FEW032 BKN042 28/22 A2993 RMK AO2 SLP136 T02830222 10317 20283 53004
KILM 162253Z 08006KT 10SM FEW042 FEW060 29/23 A2993 RMK AO2 SLP133 T02890228
KILM 162153Z 04011KT 10SM FEW042 31/21 A2993 RMK AO2 SLP134 T03110206
KILM 162053Z 07006KT 10SM FEW039 SCT049 31/23 A2992 RMK AO2 SLP132 T03110228 56015
KILM 161953Z 09006KT 10SM BKN040 BKN047 31/23 A2993 RMK AO2 SLP135 T03060228
KILM 161853Z 04010KT 10SM SCT040 BKN049 31/21 A2995 RMK AO2 SLP140 T03110211